sensor_id;sensor_type;location;lat;lon;timestamp;P1;durP1;ratioP1;P2;durP2;ratioP2
8640;SDS011;4358;42.100;25.222;2024-02-04T00:00:18;20.40;;;11.83;;
8640;SDS011;4358;42.100;25.222;2024-02-04T00:02:45;21.50;;;12.17;;
8640;SDS011;4358;42.100;25.222;2024-02-04T00:05:12;14.70;;;9.77;;
8640;SDS011;4358;42.100;25.222;2024-02-04T00:07:39;19.77;;;10.17;;
8640;SDS011;4358;42.100;25.222;2024-02-04T00:10:06;19.30;;;9.33;;
8640;SDS011;4358;42.100;25.222;2024-02-04T00:12:33;17.77;;;9.70;;
8640;SDS011;4358;42.100;25.222;2024-02-04T00:15:00;38.47;;;11.47;;
8640;SDS011;4358;42.100;25.222;2024-02-04T00:17:30;21.63;;;10.47;;
8640;SDS011;4358;42.100;25.222;2024-02-04T00:19:59;14.07;;;9.33;;
8640;SDS011;4358;42.100;25.222;2024-02-04T00:22:26;10.47;;;6.93;;
8640;SDS011;4358;42.100;25.222;2024-02-04T00:24:53;13.47;;;7.20;;
8640;SDS011;4358;42.100;25.222;2024-02-04T00:27:20;12.53;;;7.30;;
8640;SDS011;4358;42.100;25.222;2024-02-04T00:29:46;8.73;;;6.43;;
8640;SDS011;4358;42.100;25.222;2024-02-04T00:32:13;7.73;;;5.80;;
8640;SDS011;4358;42.100;25.222;2024-02-04T00:34:41;14.87;;;7.17;;
8640;SDS011;4358;42.100;25.222;2024-02-04T00:37:08;9.57;;;6.97;;
8640;SDS011;4358;42.100;25.222;2024-02-04T00:39:35;15.27;;;8.93;;
8640;SDS011;4358;42.100;25.222;2024-02-04T00:42:02;43.63;;;10.30;;
8640;SDS011;4358;42.100;25.222;2024-02-04T00:44:28;15.90;;;8.17;;
8640;SDS011;4358;42.100;25.222;2024-02-04T00:46:55;15.30;;;7.93;;
8640;SDS011;4358;42.100;25.222;2024-02-04T00:49:22;14.23;;;8.20;;
8640;SDS011;4358;42.100;25.222;2024-02-04T00:51:50;13.70;;;7.90;;
8640;SDS011;4358;42.100;25.222;2024-02-04T00:54:17;11.43;;;7.67;;
8640;SDS011;4358;42.100;25.222;2024-02-04T00:56:44;15.83;;;8.80;;
8640;SDS011;4358;42.100;25.222;2024-02-04T00:59:10;174.73;;;19.53;;
8640;SDS011;4358;42.100;25.222;2024-02-04T01:01:38;57.10;;;11.20;;
8640;SDS011;4358;42.100;25.222;2024-02-04T01:04:05;17.43;;;7.47;;
8640;SDS011;4358;42.100;25.222;2024-02-04T01:06:31;17.73;;;8.63;;
8640;SDS011;4358;42.100;25.222;2024-02-04T01:08:59;18.50;;;9.20;;
8640;SDS011;4358;42.100;25.222;2024-02-04T01:11:26;15.73;;;9.77;;
8640;SDS011;4358;42.100;25.222;2024-02-04T01:13:54;17.67;;;12.00;;
8640;SDS011;4358;42.100;25.222;2024-02-04T01:16:21;23.87;;;12.10;;
8640;SDS011;4358;42.100;25.222;2024-02-04T01:18:48;24.00;;;12.87;;
8640;SDS011;4358;42.100;25.222;2024-02-04T01:21:14;21.37;;;13.40;;
8640;SDS011;4358;42.100;25.222;2024-02-04T01:23:41;27.53;;;16.63;;
8640;SDS011;4358;42.100;25.222;2024-02-04T01:26:09;26.00;;;16.27;;
8640;SDS011;4358;42.100;25.222;2024-02-04T01:28:36;24.97;;;14.97;;
8640;SDS011;4358;42.100;25.222;2024-02-04T01:31:03;29.07;;;14.33;;
8640;SDS011;4358;42.100;25.222;2024-02-04T01:33:30;22.43;;;13.83;;
8640;SDS011;4358;42.100;25.222;2024-02-04T01:35:57;21.40;;;13.43;;
8640;SDS011;4358;42.100;25.222;2024-02-04T01:38:24;19.37;;;12.80;;
8640;SDS011;4358;42.100;25.222;2024-02-04T01:40:51;16.77;;;11.97;;
8640;SDS011;4358;42.100;25.222;2024-02-04T01:43:20;20.57;;;12.50;;
8640;SDS011;4358;42.100;25.222;2024-02-04T01:45:48;18.73;;;11.47;;
8640;SDS011;4358;42.100;25.222;2024-02-04T01:48:16;19.40;;;11.77;;
8640;SDS011;4358;42.100;25.222;2024-02-04T01:50:42;21.57;;;11.87;;
8640;SDS011;4358;42.100;25.222;2024-02-04T01:53:10;17.13;;;10.07;;
8640;SDS011;4358;42.100;25.222;2024-02-04T01:55:37;18.00;;;10.30;;
8640;SDS011;4358;42.100;25.222;2024-02-04T01:58:05;16.77;;;10.33;;
8640;SDS011;4358;42.100;25.222;2024-02-04T02:00:34;14.53;;;9.37;;
8640;SDS011;4358;42.100;25.222;2024-02-04T02:03:01;12.37;;;8.77;;
8640;SDS011;4358;42.100;25.222;2024-02-04T02:05:31;97.23;;;14.63;;
8640;SDS011;4358;42.100;25.222;2024-02-04T02:07:58;21.47;;;10.77;;
8640;SDS011;4358;42.100;25.222;2024-02-04T02:10:25;24.67;;;10.37;;
8640;SDS011;4358;42.100;25.222;2024-02-04T02:12:55;13.87;;;9.60;;
8640;SDS011;4358;42.100;25.222;2024-02-04T02:15:27;16.30;;;9.30;;
8640;SDS011;4358;42.100;25.222;2024-02-04T02:18:00;14.37;;;8.80;;
8640;SDS011;4358;42.100;25.222;2024-02-04T02:20:32;14.23;;;8.67;;
8640;SDS011;4358;42.100;25.222;2024-02-04T02:23:10;12.30;;;8.43;;
8640;SDS011;4358;42.100;25.222;2024-02-04T02:25:42;11.57;;;7.60;;
8640;SDS011;4358;42.100;25.222;2024-02-04T02:28:12;11.30;;;8.10;;
8640;SDS011;4358;42.100;25.222;2024-02-04T02:30:39;13.23;;;7.80;;
8640;SDS011;4358;42.100;25.222;2024-02-04T02:33:05;13.60;;;8.47;;
8640;SDS011;4358;42.100;25.222;2024-02-04T02:35:33;15.70;;;7.83;;
8640;SDS011;4358;42.100;25.222;2024-02-04T02:38:05;41.47;;;10.17;;
8640;SDS011;4358;42.100;25.222;2024-02-04T02:40:49;21.00;;;9.53;;
8640;SDS011;4358;42.100;25.222;2024-02-04T02:43:20;21.67;;;9.73;;
8640;SDS011;4358;42.100;25.222;2024-02-04T02:45:48;23.50;;;10.57;;
8640;SDS011;4358;42.100;25.222;2024-02-04T02:48:15;15.37;;;9.27;;
8640;SDS011;4358;42.100;25.222;2024-02-04T02:50:42;17.17;;;9.33;;
8640;SDS011;4358;42.100;25.222;2024-02-04T02:53:09;15.33;;;9.10;;
8640;SDS011;4358;42.100;25.222;2024-02-04T02:55:35;13.30;;;8.80;;
8640;SDS011;4358;42.100;25.222;2024-02-04T02:58:04;14.43;;;9.43;;
8640;SDS011;4358;42.100;25.222;2024-02-04T03:00:30;16.73;;;9.70;;
8640;SDS011;4358;42.100;25.222;2024-02-04T03:02:57;12.83;;;8.07;;
8640;SDS011;4358;42.100;25.222;2024-02-04T03:05:24;12.73;;;8.40;;
8640;SDS011;4358;42.100;25.222;2024-02-04T03:07:51;25.10;;;8.00;;
8640;SDS011;4358;42.100;25.222;2024-02-04T03:10:18;13.00;;;7.60;;
8640;SDS011;4358;42.100;25.222;2024-02-04T03:12:44;10.30;;;7.40;;
8640;SDS011;4358;42.100;25.222;2024-02-04T03:15:13;13.60;;;7.77;;
8640;SDS011;4358;42.100;25.222;2024-02-04T03:17:40;13.53;;;8.87;;
8640;SDS011;4358;42.100;25.222;2024-02-04T03:20:07;14.10;;;8.73;;
8640;SDS011;4358;42.100;25.222;2024-02-04T03:22:34;13.77;;;8.60;;
8640;SDS011;4358;42.100;25.222;2024-02-04T03:25:01;14.10;;;8.37;;
8640;SDS011;4358;42.100;25.222;2024-02-04T03:27:28;14.37;;;9.13;;
8640;SDS011;4358;42.100;25.222;2024-02-04T03:29:54;14.67;;;8.43;;
8640;SDS011;4358;42.100;25.222;2024-02-04T03:32:23;17.63;;;9.70;;
8640;SDS011;4358;42.100;25.222;2024-02-04T03:34:49;13.10;;;8.03;;
8640;SDS011;4358;42.100;25.222;2024-02-04T03:37:16;14.23;;;7.77;;
8640;SDS011;4358;42.100;25.222;2024-02-04T03:39:43;13.93;;;8.27;;
8640;SDS011;4358;42.100;25.222;2024-02-04T03:42:09;16.83;;;8.23;;
8640;SDS011;4358;42.100;25.222;2024-02-04T03:44:36;14.67;;;9.07;;
8640;SDS011;4358;42.100;25.222;2024-02-04T03:47:03;16.27;;;9.67;;
8640;SDS011;4358;42.100;25.222;2024-02-04T03:49:31;18.37;;;9.80;;
8640;SDS011;4358;42.100;25.222;2024-02-04T03:51:58;22.83;;;11.57;;
8640;SDS011;4358;42.100;25.222;2024-02-04T03:54:26;20.43;;;12.00;;
8640;SDS011;4358;42.100;25.222;2024-02-04T03:56:53;19.40;;;12.67;;
8640;SDS011;4358;42.100;25.222;2024-02-04T03:59:20;22.90;;;12.30;;
8640;SDS011;4358;42.100;25.222;2024-02-04T04:01:47;21.67;;;13.00;;
8640;SDS011;4358;42.100;25.222;2024-02-04T04:04:14;20.53;;;11.50;;
8640;SDS011;4358;42.100;25.222;2024-02-04T04:06:44;19.43;;;10.60;;
8640;SDS011;4358;42.100;25.222;2024-02-04T04:09:11;15.87;;;9.57;;
8640;SDS011;4358;42.100;25.222;2024-02-04T04:11:38;12.50;;;7.83;;
8640;SDS011;4358;42.100;25.222;2024-02-04T04:14:05;11.17;;;7.40;;
8640;SDS011;4358;42.100;25.222;2024-02-04T04:16:32;8.43;;;6.00;;
8640;SDS011;4358;42.100;25.222;2024-02-04T04:18:59;10.63;;;6.00;;
8640;SDS011;4358;42.100;25.222;2024-02-04T04:21:26;10.00;;;6.40;;
8640;SDS011;4358;42.100;25.222;2024-02-04T04:23:54;14.00;;;6.80;;
8640;SDS011;4358;42.100;25.222;2024-02-04T04:26:21;13.20;;;7.63;;
8640;SDS011;4358;42.100;25.222;2024-02-04T04:28:47;11.63;;;6.30;;
8640;SDS011;4358;42.100;25.222;2024-02-04T04:31:14;12.53;;;7.20;;
8640;SDS011;4358;42.100;25.222;2024-02-04T04:33:41;14.30;;;7.33;;
8640;SDS011;4358;42.100;25.222;2024-02-04T04:36:08;12.97;;;8.80;;
8640;SDS011;4358;42.100;25.222;2024-02-04T04:38:34;12.00;;;7.87;;
8640;SDS011;4358;42.100;25.222;2024-02-04T04:41:03;12.87;;;8.80;;
8640;SDS011;4358;42.100;25.222;2024-02-04T04:43:30;15.90;;;9.07;;
8640;SDS011;4358;42.100;25.222;2024-02-04T04:45:57;14.17;;;8.97;;
8640;SDS011;4358;42.100;25.222;2024-02-04T04:48:23;17.20;;;9.97;;
8640;SDS011;4358;42.100;25.222;2024-02-04T04:50:50;14.37;;;9.43;;
8640;SDS011;4358;42.100;25.222;2024-02-04T04:53:17;18.37;;;10.67;;
8640;SDS011;4358;42.100;25.222;2024-02-04T04:55:44;19.90;;;11.53;;
8640;SDS011;4358;42.100;25.222;2024-02-04T04:58:12;18.17;;;11.67;;
8640;SDS011;4358;42.100;25.222;2024-02-04T05:00:39;18.93;;;13.37;;
8640;SDS011;4358;42.100;25.222;2024-02-04T05:03:06;23.50;;;13.03;;
8640;SDS011;4358;42.100;25.222;2024-02-04T05:05:32;15.77;;;11.00;;
8640;SDS011;4358;42.100;25.222;2024-02-04T05:07:59;17.40;;;9.97;;
8640;SDS011;4358;42.100;25.222;2024-02-04T05:10:26;14.70;;;9.30;;
8640;SDS011;4358;42.100;25.222;2024-02-04T05:12:53;11.93;;;9.03;;
8640;SDS011;4358;42.100;25.222;2024-02-04T05:15:21;13.70;;;9.03;;
8640;SDS011;4358;42.100;25.222;2024-02-04T05:17:50;12.00;;;8.20;;
8640;SDS011;4358;42.100;25.222;2024-02-04T05:20:17;12.70;;;8.47;;
8640;SDS011;4358;42.100;25.222;2024-02-04T05:22:43;10.83;;;7.83;;
8640;SDS011;4358;42.100;25.222;2024-02-04T05:25:10;12.70;;;8.67;;
8640;SDS011;4358;42.100;25.222;2024-02-04T05:27:37;10.83;;;8.13;;
8640;SDS011;4358;42.100;25.222;2024-02-04T05:30:04;11.03;;;7.67;;
8640;SDS011;4358;42.100;25.222;2024-02-04T05:32:33;14.07;;;9.17;;
8640;SDS011;4358;42.100;25.222;2024-02-04T05:35:00;17.80;;;9.63;;
8640;SDS011;4358;42.100;25.222;2024-02-04T05:37:27;15.37;;;10.53;;
8640;SDS011;4358;42.100;25.222;2024-02-04T05:39:53;16.03;;;9.87;;
8640;SDS011;4358;42.100;25.222;2024-02-04T05:42:20;17.27;;;10.17;;
8640;SDS011;4358;42.100;25.222;2024-02-04T05:44:47;19.07;;;10.53;;
8640;SDS011;4358;42.100;25.222;2024-02-04T05:47:14;13.60;;;10.10;;
8640;SDS011;4358;42.100;25.222;2024-02-04T05:49:42;17.27;;;11.00;;
8640;SDS011;4358;42.100;25.222;2024-02-04T05:52:11;19.27;;;11.30;;
8640;SDS011;4358;42.100;25.222;2024-02-04T05:54:38;17.47;;;10.40;;
8640;SDS011;4358;42.100;25.222;2024-02-04T05:57:05;19.37;;;11.87;;
8640;SDS011;4358;42.100;25.222;2024-02-04T05:59:32;21.87;;;13.97;;
8640;SDS011;4358;42.100;25.222;2024-02-04T06:01:59;21.90;;;14.67;;
8640;SDS011;4358;42.100;25.222;2024-02-04T06:04:26;26.57;;;16.97;;
8640;SDS011;4358;42.100;25.222;2024-02-04T06:06:54;27.47;;;17.90;;
8640;SDS011;4358;42.100;25.222;2024-02-04T06:09:21;20.73;;;14.33;;
8640;SDS011;4358;42.100;25.222;2024-02-04T06:11:47;24.27;;;15.63;;
8640;SDS011;4358;42.100;25.222;2024-02-04T06:14:14;19.50;;;11.10;;
8640;SDS011;4358;42.100;25.222;2024-02-04T06:16:41;58.10;;;32.30;;
8640;SDS011;4358;42.100;25.222;2024-02-04T06:19:07;49.00;;;30.27;;
8640;SDS011;4358;42.100;25.222;2024-02-04T06:21:38;30.67;;;20.03;;
8640;SDS011;4358;42.100;25.222;2024-02-04T06:24:06;36.73;;;21.53;;
8640;SDS011;4358;42.100;25.222;2024-02-04T06:26:33;49.37;;;27.93;;
8640;SDS011;4358;42.100;25.222;2024-02-04T06:28:59;37.97;;;23.77;;
8640;SDS011;4358;42.100;25.222;2024-02-04T06:31:26;38.20;;;22.47;;
8640;SDS011;4358;42.100;25.222;2024-02-04T06:33:53;35.57;;;20.63;;
8640;SDS011;4358;42.100;25.222;2024-02-04T06:36:20;32.30;;;17.43;;
8640;SDS011;4358;42.100;25.222;2024-02-04T06:38:47;31.83;;;18.43;;
8640;SDS011;4358;42.100;25.222;2024-02-04T06:41:15;29.07;;;17.60;;
8640;SDS011;4358;42.100;25.222;2024-02-04T06:43:42;31.77;;;16.53;;
8640;SDS011;4358;42.100;25.222;2024-02-04T06:46:09;30.73;;;19.20;;
8640;SDS011;4358;42.100;25.222;2024-02-04T06:48:35;39.53;;;22.87;;
8640;SDS011;4358;42.100;25.222;2024-02-04T06:51:02;42.73;;;26.50;;
8640;SDS011;4358;42.100;25.222;2024-02-04T06:53:29;52.13;;;26.20;;
8640;SDS011;4358;42.100;25.222;2024-02-04T06:55:56;45.33;;;26.83;;
8640;SDS011;4358;42.100;25.222;2024-02-04T06:58:24;45.80;;;25.13;;
8640;SDS011;4358;42.100;25.222;2024-02-04T07:00:50;46.80;;;25.33;;
8640;SDS011;4358;42.100;25.222;2024-02-04T07:03:17;44.63;;;27.70;;
8640;SDS011;4358;42.100;25.222;2024-02-04T07:05:44;46.90;;;28.97;;
8640;SDS011;4358;42.100;25.222;2024-02-04T07:08:12;40.20;;;25.93;;
8640;SDS011;4358;42.100;25.222;2024-02-04T07:10:38;40.83;;;22.83;;
8640;SDS011;4358;42.100;25.222;2024-02-04T07:13:05;36.33;;;22.80;;
8640;SDS011;4358;42.100;25.222;2024-02-04T07:15:34;35.63;;;19.60;;
8640;SDS011;4358;42.100;25.222;2024-02-04T07:18:01;40.23;;;23.63;;
8640;SDS011;4358;42.100;25.222;2024-02-04T07:20:28;37.47;;;23.57;;
8640;SDS011;4358;42.100;25.222;2024-02-04T07:22:55;36.77;;;22.93;;
8640;SDS011;4358;42.100;25.222;2024-02-04T07:25:21;36.83;;;24.23;;
8640;SDS011;4358;42.100;25.222;2024-02-04T07:27:49;37.90;;;24.87;;
8640;SDS011;4358;42.100;25.222;2024-02-04T07:30:16;51.43;;;29.87;;
8640;SDS011;4358;42.100;25.222;2024-02-04T07:32:44;45.83;;;30.13;;
8640;SDS011;4358;42.100;25.222;2024-02-04T07:35:11;45.40;;;30.17;;
8640;SDS011;4358;42.100;25.222;2024-02-04T07:37:38;50.47;;;30.87;;
8640;SDS011;4358;42.100;25.222;2024-02-04T07:40:05;49.33;;;30.53;;
8640;SDS011;4358;42.100;25.222;2024-02-04T07:42:33;42.57;;;29.70;;
8640;SDS011;4358;42.100;25.222;2024-02-04T07:45:00;51.00;;;30.53;;
8640;SDS011;4358;42.100;25.222;2024-02-04T07:47:33;61.27;;;30.80;;
8640;SDS011;4358;42.100;25.222;2024-02-04T07:50:01;52.87;;;31.63;;
8640;SDS011;4358;42.100;25.222;2024-02-04T07:52:29;58.27;;;31.73;;
8640;SDS011;4358;42.100;25.222;2024-02-04T07:54:55;60.43;;;36.43;;
8640;SDS011;4358;42.100;25.222;2024-02-04T07:57:22;52.40;;;31.27;;
8640;SDS011;4358;42.100;25.222;2024-02-04T07:59:49;48.67;;;29.47;;
8640;SDS011;4358;42.100;25.222;2024-02-04T08:02:17;44.17;;;30.30;;
8640;SDS011;4358;42.100;25.222;2024-02-04T08:04:44;56.30;;;33.93;;
8640;SDS011;4358;42.100;25.222;2024-02-04T08:07:12;55.53;;;34.27;;
8640;SDS011;4358;42.100;25.222;2024-02-04T08:09:39;52.43;;;34.77;;
8640;SDS011;4358;42.100;25.222;2024-02-04T08:12:07;55.53;;;35.33;;
8640;SDS011;4358;42.100;25.222;2024-02-04T08:14:34;65.43;;;37.80;;
8640;SDS011;4358;42.100;25.222;2024-02-04T08:17:01;66.67;;;37.00;;
8640;SDS011;4358;42.100;25.222;2024-02-04T08:19:28;89.63;;;39.50;;
8640;SDS011;4358;42.100;25.222;2024-02-04T08:21:55;48.93;;;31.77;;
8640;SDS011;4358;42.100;25.222;2024-02-04T08:24:23;145.20;;;32.93;;
8640;SDS011;4358;42.100;25.222;2024-02-04T08:26:50;43.77;;;27.63;;
8640;SDS011;4358;42.100;25.222;2024-02-04T08:29:16;55.70;;;26.53;;
8640;SDS011;4358;42.100;25.222;2024-02-04T08:31:43;29.53;;;17.67;;
8640;SDS011;4358;42.100;25.222;2024-02-04T08:34:10;35.70;;;7.90;;
8640;SDS011;4358;42.100;25.222;2024-02-04T08:36:37;7.10;;;5.17;;
8640;SDS011;4358;42.100;25.222;2024-02-04T08:39:04;9.03;;;5.77;;
8640;SDS011;4358;42.100;25.222;2024-02-04T08:41:32;7.93;;;5.10;;
8640;SDS011;4358;42.100;25.222;2024-02-04T08:43:59;22.87;;;6.83;;
8640;SDS011;4358;42.100;25.222;2024-02-04T08:46:25;10.80;;;5.83;;
8640;SDS011;4358;42.100;25.222;2024-02-04T08:48:52;11.43;;;7.83;;
8640;SDS011;4358;42.100;25.222;2024-02-04T08:51:19;9.47;;;6.50;;
8640;SDS011;4358;42.100;25.222;2024-02-04T08:53:46;7.20;;;5.70;;
8640;SDS011;4358;42.100;25.222;2024-02-04T08:56:12;5.40;;;4.73;;
8640;SDS011;4358;42.100;25.222;2024-02-04T08:58:41;8.23;;;4.33;;
8640;SDS011;4358;42.100;25.222;2024-02-04T09:01:07;13.30;;;4.77;;
8640;SDS011;4358;42.100;25.222;2024-02-04T09:03:34;9.93;;;7.10;;
8640;SDS011;4358;42.100;25.222;2024-02-04T09:06:01;13.97;;;5.93;;
8640;SDS011;4358;42.100;25.222;2024-02-04T09:08:28;12.07;;;4.60;;
8640;SDS011;4358;42.100;25.222;2024-02-04T09:10:55;4.83;;;3.57;;
8640;SDS011;4358;42.100;25.222;2024-02-04T09:13:22;3.33;;;2.90;;
8640;SDS011;4358;42.100;25.222;2024-02-04T09:15:50;4.97;;;3.40;;
8640;SDS011;4358;42.100;25.222;2024-02-04T09:18:19;4.30;;;3.30;;
8640;SDS011;4358;42.100;25.222;2024-02-04T09:20:45;4.20;;;3.40;;
8640;SDS011;4358;42.100;25.222;2024-02-04T09:23:12;5.93;;;3.23;;
8640;SDS011;4358;42.100;25.222;2024-02-04T09:25:39;11.53;;;2.93;;
8640;SDS011;4358;42.100;25.222;2024-02-04T09:28:06;3.20;;;2.90;;
8640;SDS011;4358;42.100;25.222;2024-02-04T09:30:33;7.83;;;3.13;;
8640;SDS011;4358;42.100;25.222;2024-02-04T09:33:01;5.50;;;3.33;;
8640;SDS011;4358;42.100;25.222;2024-02-04T09:35:28;4.80;;;3.13;;
8640;SDS011;4358;42.100;25.222;2024-02-04T09:37:55;4.23;;;3.20;;
8640;SDS011;4358;42.100;25.222;2024-02-04T09:40:22;12.43;;;3.90;;
8640;SDS011;4358;42.100;25.222;2024-02-04T09:42:48;6.07;;;3.37;;
8640;SDS011;4358;42.100;25.222;2024-02-04T09:45:17;6.47;;;3.20;;
8640;SDS011;4358;42.100;25.222;2024-02-04T09:47:44;9.43;;;3.33;;
8640;SDS011;4358;42.100;25.222;2024-02-04T09:50:13;4.53;;;2.27;;
8640;SDS011;4358;42.100;25.222;2024-02-04T09:52:40;7.73;;;2.93;;
8640;SDS011;4358;42.100;25.222;2024-02-04T09:55:10;4.97;;;2.27;;
8640;SDS011;4358;42.100;25.222;2024-02-04T09:57:41;6.30;;;2.30;;
8640;SDS011;4358;42.100;25.222;2024-02-04T10:00:09;2.47;;;2.07;;
8640;SDS011;4358;42.100;25.222;2024-02-04T10:02:37;2.63;;;1.97;;
8640;SDS011;4358;42.100;25.222;2024-02-04T10:05:04;3.17;;;2.30;;
8640;SDS011;4358;42.100;25.222;2024-02-04T10:07:32;2.97;;;2.30;;
8640;SDS011;4358;42.100;25.222;2024-02-04T10:09:59;2.80;;;2.20;;
8640;SDS011;4358;42.100;25.222;2024-02-04T10:12:25;4.93;;;2.40;;
8640;SDS011;4358;42.100;25.222;2024-02-04T10:14:52;3.07;;;2.03;;
8640;SDS011;4358;42.100;25.222;2024-02-04T10:17:19;7.07;;;2.23;;
8640;SDS011;4358;42.100;25.222;2024-02-04T10:19:46;2.90;;;2.60;;
8640;SDS011;4358;42.100;25.222;2024-02-04T10:22:14;2.80;;;2.50;;
8640;SDS011;4358;42.100;25.222;2024-02-04T10:24:43;8.50;;;3.83;;
8640;SDS011;4358;42.100;25.222;2024-02-04T10:27:12;2.33;;;2.00;;
8640;SDS011;4358;42.100;25.222;2024-02-04T10:29:39;3.23;;;2.33;;
8640;SDS011;4358;42.100;25.222;2024-02-04T10:32:06;4.10;;;2.93;;
8640;SDS011;4358;42.100;25.222;2024-02-04T10:34:36;47.00;;;6.60;;
8640;SDS011;4358;42.100;25.222;2024-02-04T10:37:03;3.77;;;2.50;;
8640;SDS011;4358;42.100;25.222;2024-02-04T10:39:30;3.73;;;2.90;;
8640;SDS011;4358;42.100;25.222;2024-02-04T10:42:01;7.73;;;2.97;;
8640;SDS011;4358;42.100;25.222;2024-02-04T10:44:31;8.27;;;3.07;;
8640;SDS011;4358;42.100;25.222;2024-02-04T10:47:01;4.03;;;2.73;;
8640;SDS011;4358;42.100;25.222;2024-02-04T10:49:32;3.33;;;2.90;;
8640;SDS011;4358;42.100;25.222;2024-02-04T10:52:03;3.97;;;3.00;;
8640;SDS011;4358;42.100;25.222;2024-02-04T10:54:34;5.27;;;2.73;;
8640;SDS011;4358;42.100;25.222;2024-02-04T10:57:08;5.60;;;2.80;;
8640;SDS011;4358;42.100;25.222;2024-02-04T10:59:39;2.93;;;2.63;;
8640;SDS011;4358;42.100;25.222;2024-02-04T11:02:06;2.77;;;2.30;;
8640;SDS011;4358;42.100;25.222;2024-02-04T11:04:33;6.03;;;2.60;;
8640;SDS011;4358;42.100;25.222;2024-02-04T11:07:01;5.23;;;2.97;;
8640;SDS011;4358;42.100;25.222;2024-02-04T11:09:31;2.07;;;1.87;;
8640;SDS011;4358;42.100;25.222;2024-02-04T11:11:58;2.70;;;2.00;;
8640;SDS011;4358;42.100;25.222;2024-02-04T11:14:28;3.23;;;2.60;;
8640;SDS011;4358;42.100;25.222;2024-02-04T11:19:55;7.13;;;2.97;;
8640;SDS011;4358;42.100;25.222;2024-02-04T11:22:38;3.13;;;2.10;;
8640;SDS011;4358;42.100;25.222;2024-02-04T11:25:29;5.47;;;3.43;;
8640;SDS011;4358;42.100;25.222;2024-02-04T11:28:16;4.30;;;2.13;;
8640;SDS011;4358;42.100;25.222;2024-02-04T11:30:46;4.10;;;2.97;;
8640;SDS011;4358;42.100;25.222;2024-02-04T11:33:17;3.37;;;2.00;;
8640;SDS011;4358;42.100;25.222;2024-02-04T11:35:44;3.03;;;2.60;;
8640;SDS011;4358;42.100;25.222;2024-02-04T11:38:12;6.20;;;4.00;;
8640;SDS011;4358;42.100;25.222;2024-02-04T11:40:45;3.80;;;2.53;;
8640;SDS011;4358;42.100;25.222;2024-02-04T11:43:12;2.53;;;2.20;;
8640;SDS011;4358;42.100;25.222;2024-02-04T11:45:41;3.00;;;2.70;;
8640;SDS011;4358;42.100;25.222;2024-02-04T11:48:10;2.50;;;2.30;;
8640;SDS011;4358;42.100;25.222;2024-02-04T11:50:37;3.43;;;2.30;;
8640;SDS011;4358;42.100;25.222;2024-02-04T11:53:05;2.93;;;2.10;;
8640;SDS011;4358;42.100;25.222;2024-02-04T11:55:33;2.80;;;2.23;;
8640;SDS011;4358;42.100;25.222;2024-02-04T11:58:00;41.33;;;5.13;;
8640;SDS011;4358;42.100;25.222;2024-02-04T12:00:28;2.87;;;2.33;;
8640;SDS011;4358;42.100;25.222;2024-02-04T12:03:01;2.63;;;2.17;;
8640;SDS011;4358;42.100;25.222;2024-02-04T12:05:30;4.40;;;2.43;;
8640;SDS011;4358;42.100;25.222;2024-02-04T12:07:59;16.13;;;3.50;;
8640;SDS011;4358;42.100;25.222;2024-02-04T12:10:27;9.03;;;3.07;;
8640;SDS011;4358;42.100;25.222;2024-02-04T12:12:57;10.37;;;2.60;;
8640;SDS011;4358;42.100;25.222;2024-02-04T12:15:24;2.57;;;2.00;;
8640;SDS011;4358;42.100;25.222;2024-02-04T12:17:52;4.73;;;2.57;;
8640;SDS011;4358;42.100;25.222;2024-02-04T12:20:18;3.03;;;2.30;;
8640;SDS011;4358;42.100;25.222;2024-02-04T12:22:47;4.50;;;2.80;;
8640;SDS011;4358;42.100;25.222;2024-02-04T12:25:14;10.57;;;3.10;;
8640;SDS011;4358;42.100;25.222;2024-02-04T12:27:41;6.67;;;3.60;;
8640;SDS011;4358;42.100;25.222;2024-02-04T12:30:08;4.47;;;2.83;;
8640;SDS011;4358;42.100;25.222;2024-02-04T12:32:35;9.40;;;3.97;;
8640;SDS011;4358;42.100;25.222;2024-02-04T12:35:03;9.83;;;2.93;;
8640;SDS011;4358;42.100;25.222;2024-02-04T12:37:31;3.90;;;2.90;;
8640;SDS011;4358;42.100;25.222;2024-02-04T12:40:00;3.03;;;1.73;;
8640;SDS011;4358;42.100;25.222;2024-02-04T12:42:28;4.60;;;2.33;;
8640;SDS011;4358;42.100;25.222;2024-02-04T12:44:56;2.47;;;2.00;;
8640;SDS011;4358;42.100;25.222;2024-02-04T12:47:23;4.17;;;2.77;;
8640;SDS011;4358;42.100;25.222;2024-02-04T12:49:57;2.97;;;2.67;;
8640;SDS011;4358;42.100;25.222;2024-02-04T12:52:24;2.53;;;1.80;;
8640;SDS011;4358;42.100;25.222;2024-02-04T12:54:51;4.70;;;2.70;;
8640;SDS011;4358;42.100;25.222;2024-02-04T12:57:24;10.77;;;2.77;;
8640;SDS011;4358;42.100;25.222;2024-02-04T12:59:51;2.83;;;2.30;;
8640;SDS011;4358;42.100;25.222;2024-02-04T13:02:18;10.47;;;1.60;;
8640;SDS011;4358;42.100;25.222;2024-02-04T13:04:46;3.27;;;1.60;;
8640;SDS011;4358;42.100;25.222;2024-02-04T13:07:13;2.57;;;1.70;;
8640;SDS011;4358;42.100;25.222;2024-02-04T13:09:42;2.07;;;1.40;;
8640;SDS011;4358;42.100;25.222;2024-02-04T13:12:09;4.00;;;1.50;;
8640;SDS011;4358;42.100;25.222;2024-02-04T13:14:38;3.30;;;1.20;;
8640;SDS011;4358;42.100;25.222;2024-02-04T13:17:05;9.40;;;1.53;;
8640;SDS011;4358;42.100;25.222;2024-02-04T13:19:32;4.77;;;1.27;;
8640;SDS011;4358;42.100;25.222;2024-02-04T13:22:01;1.33;;;1.17;;
8640;SDS011;4358;42.100;25.222;2024-02-04T13:24:28;1.50;;;1.03;;
8640;SDS011;4358;42.100;25.222;2024-02-04T13:26:55;1.07;;;0.90;;
8640;SDS011;4358;42.100;25.222;2024-02-04T13:29:22;2.83;;;1.43;;
8640;SDS011;4358;42.100;25.222;2024-02-04T13:31:50;1.83;;;1.30;;
8640;SDS011;4358;42.100;25.222;2024-02-04T13:34:17;1.87;;;1.43;;
8640;SDS011;4358;42.100;25.222;2024-02-04T13:36:45;2.67;;;1.20;;
8640;SDS011;4358;42.100;25.222;2024-02-04T13:39:12;3.13;;;1.30;;
8640;SDS011;4358;42.100;25.222;2024-02-04T13:41:39;1.30;;;1.20;;
8640;SDS011;4358;42.100;25.222;2024-02-04T13:44:06;1.23;;;1.10;;
8640;SDS011;4358;42.100;25.222;2024-02-04T13:46:33;1.10;;;1.00;;
8640;SDS011;4358;42.100;25.222;2024-02-04T13:49:01;1.40;;;1.30;;
8640;SDS011;4358;42.100;25.222;2024-02-04T13:51:29;6.77;;;1.83;;
8640;SDS011;4358;42.100;25.222;2024-02-04T13:53:55;2.90;;;2.07;;
8640;SDS011;4358;42.100;25.222;2024-02-04T13:56:22;1.67;;;1.40;;
8640;SDS011;4358;42.100;25.222;2024-02-04T13:58:49;1.40;;;1.30;;
8640;SDS011;4358;42.100;25.222;2024-02-04T14:01:16;1.57;;;1.40;;
8640;SDS011;4358;42.100;25.222;2024-02-04T14:03:45;3.13;;;1.20;;
8640;SDS011;4358;42.100;25.222;2024-02-04T14:06:13;1.50;;;1.23;;
8640;SDS011;4358;42.100;25.222;2024-02-04T14:08:40;2.57;;;1.43;;
8640;SDS011;4358;42.100;25.222;2024-02-04T14:11:07;3.63;;;1.13;;
8640;SDS011;4358;42.100;25.222;2024-02-04T14:13:34;2.57;;;1.70;;
8640;SDS011;4358;42.100;25.222;2024-02-04T14:16:01;1.87;;;1.60;;
8640;SDS011;4358;42.100;25.222;2024-02-04T14:18:28;4.20;;;1.30;;
8640;SDS011;4358;42.100;25.222;2024-02-04T14:20:55;22.07;;;3.90;;
8640;SDS011;4358;42.100;25.222;2024-02-04T14:23:23;3.40;;;2.50;;
8640;SDS011;4358;42.100;25.222;2024-02-04T14:25:50;8.07;;;2.50;;
8640;SDS011;4358;42.100;25.222;2024-02-04T14:28:18;3.10;;;1.70;;
8640;SDS011;4358;42.100;25.222;2024-02-04T14:30:45;2.23;;;1.40;;
8640;SDS011;4358;42.100;25.222;2024-02-04T14:33:12;5.90;;;1.47;;
8640;SDS011;4358;42.100;25.222;2024-02-04T14:35:38;2.37;;;1.80;;
8640;SDS011;4358;42.100;25.222;2024-02-04T14:38:05;2.53;;;1.60;;
8640;SDS011;4358;42.100;25.222;2024-02-04T14:40:33;2.13;;;1.80;;
8640;SDS011;4358;42.100;25.222;2024-02-04T14:43:00;3.80;;;1.77;;
8640;SDS011;4358;42.100;25.222;2024-02-04T14:45:27;2.17;;;1.50;;
8640;SDS011;4358;42.100;25.222;2024-02-04T14:47:54;1.73;;;1.43;;
8640;SDS011;4358;42.100;25.222;2024-02-04T14:50:21;3.10;;;2.33;;
8640;SDS011;4358;42.100;25.222;2024-02-04T14:52:47;2.83;;;2.17;;